This is the latest recevied weather packets stored in our database for station/object WC4PEM-10. If no packets are shown the sender has not sent any weather packets the latest 1 day(s).
| Time | Temp. | Humidity | Pressure | Rain* | Wind** | Luminosity | Snow |
|---|---|---|---|---|---|---|---|
| 1778007088 | 30° C | 49% | 1014.4 hPa | 0 mm | 1.79 m/s, 144° | - | - |
| 1778006888 | 30.56° C | 48% | 1014.5 hPa | 0 mm | 2.24 m/s, 167° | - | - |
| 1778006788 | 30.56° C | 48% | 1014.5 hPa | 0 mm | 2.24 m/s, 167° | - | - |
| 1778006488 | 30° C | 49% | 1014.6 hPa | 0 mm | 2.24 m/s, 76° | - | - |
| 1778006284 | 29.44° C | 51% | 1014.7 hPa | 0 mm | 2.24 m/s, 51° | - | - |
| 1778006188 | 29.44° C | 51% | 1014.7 hPa | 0 mm | 2.24 m/s, 51° | - | - |
| 1778005957 | 29.44° C | 53% | 1014.8 hPa | 0 mm | 2.24 m/s, 32° | - | - |
| 1778005888 | 29.44° C | 53% | 1014.8 hPa | 0 mm | 2.24 m/s, 32° | - | - |
| 1778005694 | 29.44° C | 54% | 1014.8 hPa | 0 mm | 3.13 m/s, 51° | - | - |
| 1778005588 | 29.44° C | 54% | 1014.8 hPa | 0 mm | 3.13 m/s, 51° | - | - |
| 1778005300 | 29.44° C | 51% | 1015 hPa | 0 mm | 1.79 m/s, 178° | - | - |
| 1778005288 | 29.44° C | 52% | 1015 hPa | 0 mm | 4.02 m/s, 72° | - | - |
| 1778005091 | 29.44° C | 52% | 1015.1 hPa | 0 mm | 4.02 m/s, 38° | - | - |
| 1778004988 | 29.44° C | 52% | 1015.1 hPa | 0 mm | 4.02 m/s, 38° | - | - |
| 1778004821 | 30° C | 53% | 1015.1 hPa | 0 mm | 2.24 m/s, 92° | - | - |
| 1778004688 | 30° C | 53% | 1015.1 hPa | 0 mm | 2.24 m/s, 92° | - | - |
| 1778004519 | 29.44° C | 51% | 1015 hPa | 0 mm | 1.79 m/s, 178° | - | - |
| 1778004388 | 29.44° C | 51% | 1015 hPa | 0 mm | 1.79 m/s, 178° | - | - |
| 1778004088 | 29.44° C | 52% | 1015.2 hPa | 0 mm | 3.13 m/s, 39° | - | - |
| 1778003788 | 28.89° C | 54% | 1015.3 hPa | 0 mm | 3.13 m/s, 117° | - | - |
| 1778003590 | 28.33° C | 56% | 1015.3 hPa | 0 mm | 2.24 m/s, 63° | - | - |
| 1778003488 | 28.33° C | 56% | 1015.3 hPa | 0 mm | 2.24 m/s, 63° | - | - |
| 1778003409 | 27.78° C | 58% | 1015.5 hPa | 0 mm | 3.13 m/s, 93° | - | - |
| 1778003188 | 27.78° C | 58% | 1015.5 hPa | 0 mm | 3.13 m/s, 93° | - | - |
| 1778002888 | 27.78° C | 56% | 1015.6 hPa | 0 mm | 4.02 m/s, 88° | - | - |
* Rain latest hour (hover to see other rain measurements)
** Current wind speed in m/s (hover to see current wind gust speed)